Date,TemperatureHighF,TemperatureAvgF,TemperatureLowF,DewpointHighF,DewpointAvgF,DewpointLowF,HumidityHigh,HumidityAvg,HumidityLow,PressureMaxIn,PressureMinIn,WindSpeedMaxMPH,WindSpeedAvgMPH,GustSpeedMaxMPH,PrecipitationSumIn
2013-1-1,50.6,48.2,44.4,50.0,44.3,34.0,98,87,62,30.12,29.93,3,0,4,1.07
2013-1-2,50.2,44.7,40.0,50.0,41.7,-99.9,99,92,86,30.12,29.90,10,-9,11,0.01
2013-1-3,48.1,40.4,34.2,39.0,34.7,29.0,94,81,54,30.30,30.08,7,2,15,0.00
2013-1-4,51.8,38.4,30.1,29.0,22.7,-99.9,93,60,24,30.36,30.26,7,-10,17,0.00
2013-1-5,48.1,39.1,29.3,37.0,28.1,24.0,91,67,41,30.38,30.26,6,1,8,0.02
2013-1-6,48.1,42.7,40.2,40.0,36.9,34.0,90,80,67,30.27,30.11,10,4,17,0.00
2013-1-7,54.6,43.4,32.4,34.0,30.6,28.0,86,63,39,30.38,30.22,9,2,12,0.00
2013-1-8,50.5,44.4,36.4,42.0,35.3,31.0,80,71,60,30.42,30.32,7,2,11,0.00
2013-1-9,63.4,56.1,49.0,53.0,48.7,40.0,93,77,64,30.42,30.34,6,1,9,0.00
2013-1-10,65.2,59.9,56.5,57.0,54.3,53.0,96,82,69,30.40,30.23,9,2,15,0.03
2013-1-11,66.8,62.3,58.1,64.0,61.3,57.0,99,97,87,30.22,30.07,9,3,13,0.31
2013-1-12,71.9,63.8,57.8,64.0,60.4,57.0,99,89,69,30.13,30.02,6,1,11,0.00
2013-1-13,70.3,64.3,59.1,63.0,60.1,58.0,97,86,73,30.08,29.98,9,3,17,0.02
2013-1-14,65.1,60.6,54.0,64.0,59.7,53.0,98,97,92,30.07,29.98,7,2,13,0.57
2013-1-15,63.3,58.3,53.0,63.0,58.0,53.0,99,98,97,30.06,29.93,10,2,15,0.69
2013-1-16,63.2,55.7,51.9,63.0,55.3,52.0,99,98,95,29.97,29.87,5,1,9,0.30
2013-1-17,55.8,48.8,38.2,56.0,47.0,-99.9,99,96,90,30.20,29.64,9,-20,18,0.89
2013-1-18,54.4,42.6,32.7,36.0,29.0,23.0,92,63,31,30.48,30.21,4,1,10,0.00
2013-1-19,53.2,42.0,32.2,34.0,28.9,23.0,89,63,33,30.45,30.21,5,1,8,0.00
2013-1-20,62.0,47.7,35.2,39.0,34.9,31.0,93,64,39,30.21,30.07,10,2,13,0.00
2013-1-21,58.4,44.9,36.7,37.0,29.6,18.0,91,59,37,30.12,30.02,14,4,22,0.00
2013-1-22,45.1,35.4,29.4,18.0,12.0,-99.9,53,40,27,30.29,30.10,10,-7,24,0.00
2013-1-23,48.7,38.9,29.8,36.0,20.2,-99.9,66,51,41,30.36,30.15,10,-20,20,0.00
2013-1-24,54.3,46.7,35.9,41.0,24.1,6.0,81,47,17,30.38,30.07,14,4,17,0.00
2013-1-25,36.7,30.0,27.2,35.0,19.2,8.0,94,67,39,30.41,30.15,12,3,17,0.00
2013-1-26,54.1,43.3,37.1,38.0,35.3,31.0,97,76,47,30.27,30.13,8,2,11,0.01
2013-1-27,46.6,41.7,35.0,34.0,32.3,30.0,85,70,60,30.48,30.27,9,3,13,0.00
2013-1-28,51.0,45.3,41.6,46.0,38.3,32.0,95,77,68,30.43,30.27,5,1,8,0.00
2013-1-29,69.2,57.2,43.8,61.0,53.6,43.0,98,88,68,30.27,29.96,7,1,11,0.01
2013-1-30,65.8,59.3,43.1,64.0,57.3,40.0,98,93,86,29.95,29.49,19,7,28,2.68
2013-1-31,47.1,40.0,34.6,37.0,24.7,-99.9,82,57,38,30.12,29.70,18,-5,31,0.00
2013-2-1,42.0,36.4,28.9,30.0,12.8,-99.9,68,42,18,30.36,30.06,13,-6,26,0.00
2013-2-2,46.2,35.1,24.9,39.0,21.2,4.0,95,62,18,30.35,30.11,13,2,16,0.35
2013-2-3,51.9,42.2,34.0,38.0,32.3,25.0,95,72,37,30.11,29.96,14,5,25,0.00
2013-2-4,48.4,40.7,32.1,31.0,27.0,24.0,79,60,39,30.12,30.01,6,1,15,0.00
2013-2-5,56.3,46.6,35.4,48.0,39.9,31.0,94,78,64,30.02,29.95,9,2,16,0.00
2013-2-6,65.9,52.8,40.8,46.0,36.9,30.0,97,62,27,30.16,30.01,8,1,12,0.01
2013-2-7,50.6,46.5,44.2,45.0,37.9,29.0,96,75,44,30.14,29.93,10,3,17,0.29
2013-2-8,56.4,47.9,38.8,48.0,42.4,33.0,97,82,51,30.13,29.90,10,3,15,0.00
2013-2-9,61.3,46.0,31.5,32.0,26.2,-99.9,91,54,19,30.29,30.10,5,-10,8,0.00
2013-2-10,56.4,47.9,41.8,47.0,36.5,26.0,98,67,46,30.33,30.10,9,4,16,1.34
2013-2-11,54.6,51.0,46.5,54.0,50.4,46.0,99,98,91,30.10,30.02,8,2,12,0.28
2013-2-12,56.9,49.8,44.1,47.0,39.8,29.0,95,72,34,30.07,29.84,4,2,10,0.20
2013-2-13,49.8,44.1,38.4,47.0,41.5,34.0,98,91,76,29.92,29.72,12,4,23,0.07
2013-2-14,56.3,43.1,33.1,36.0,32.1,-99.9,94,70,40,30.06,29.92,10,-9,11,0.00
2013-2-15,60.2,47.1,34.5,41.0,35.3,32.0,94,67,36,30.09,29.96,12,2,15,0.00
2013-2-16,42.1,37.3,29.9,36.0,22.5,12.0,80,57,33,30.10,29.90,16,6,27,0.00
2013-2-17,44.0,34.6,25.9,19.0,11.7,7.0,57,40,23,30.28,30.10,15,4,24,0.00
2013-2-18,57.2,42.1,28.0,27.0,22.5,-99.9,84,51,30,30.37,30.16,11,-10,16,0.00
2013-2-19,54.6,43.5,38.0,45.0,30.0,-99.9,97,66,32,30.14,29.96,16,-8,23,0.36
2013-2-20,55.4,41.6,32.7,20.0,11.6,-99.9,50,34,9,30.15,30.06,10,-8,16,0.00
2013-2-21,61.4,47.2,34.5,40.0,20.4,13.0,82,37,22,30.18,29.95,10,2,11,0.06
2013-2-22,44.0,40.1,38.2,41.0,39.0,37.0,98,96,86,30.17,30.05,13,5,18,1.32
2013-2-23,48.2,43.5,40.0,47.0,41.7,-99.9,98,96,95,30.07,29.85,8,-10,11,0.40
2013-2-24,65.2,51.2,40.0,46.0,38.9,28.0,98,68,30,30.00,29.88,8,2,11,0.00
2013-2-25,49.3,44.4,37.4,38.0,30.0,26.0,95,59,48,30.04,29.88,16,5,23,0.05
2013-2-26,44.1,39.1,34.9,43.0,37.6,34.0,98,94,77,29.88,29.58,16,5,25,1.19
2013-2-27,56.3,46.6,40.0,37.0,34.7,33.0,81,65,44,29.87,29.75,20,6,24,0.00
2013-2-28,47.5,40.5,35.8,37.0,29.0,26.0,70,64,54,29.95,29.79,16,6,21,0.00
2013-3-1,41.3,38.0,34.5,31.0,29.0,26.0,81,70,63,29.97,29.92,15,5,17,0.00
2013-3-2,42.2,36.2,33.1,32.0,27.1,-99.9,89,72,53,30.00,29.89,14,-6,23,0.00
2013-3-3,42.0,33.7,29.0,24.0,18.1,-99.9,70,56,39,30.06,29.96,17,-6,24,0.00
2013-3-4,58.2,43.0,29.3,30.0,21.3,-99.9,71,46,27,30.17,30.02,8,-10,13,0.00
2013-3-5,63.3,50.6,38.5,55.0,41.3,28.0,92,71,48,30.06,29.63,22,5,31,0.33
2013-3-6,38.6,35.3,31.7,31.0,26.5,22.0,92,71,59,30.16,29.82,23,8,32,0.00
2013-3-7,58.7,42.1,30.8,34.0,27.4,-99.9,90,63,36,30.25,30.13,8,-20,15,0.00
2013-3-8,64.6,47.4,32.5,31.0,28.0,25.0,85,52,23,30.30,30.17,5,1,10,0.00
2013-3-9,60.3,51.0,40.6,33.0,28.3,24.0,54,42,31,30.31,30.19,8,2,12,0.00
2013-3-10,66.5,56.9,47.9,43.0,35.4,31.0,61,46,31,30.22,30.07,11,3,13,0.00
2013-3-11,62.2,54.9,51.2,56.0,50.8,43.0,98,86,61,30.07,29.77,9,3,16,1.16
2013-3-12,61.1,50.3,40.2,54.0,37.9,27.0,98,68,28,30.05,29.76,12,5,27,0.05
2013-3-13,51.6,44.4,37.0,33.0,27.0,20.0,78,53,29,30.20,30.05,15,5,27,0.00
2013-3-14,55.5,41.0,29.5,22.0,18.6,10.0,64,43,16,30.34,30.19,10,4,17,0.00
2013-3-15,71.0,54.6,37.9,43.0,35.4,21.0,83,51,33,30.21,29.95,12,3,19,0.00
2013-3-16,75.0,64.2,53.9,45.0,42.5,38.0,66,47,28,29.95,29.81,14,4,20,0.00
2013-3-17,69.7,62.1,52.7,54.0,48.1,42.0,79,61,46,29.95,29.85,9,2,14,0.00
2013-3-18,60.2,48.1,43.3,54.0,45.6,42.0,98,91,69,29.98,29.78,11,4,17,0.21
2013-3-19,63.4,52.2,44.0,46.0,32.4,18.0,99,57,22,30.05,29.87,15,4,17,0.01
2013-3-20,57.2,48.0,40.8,29.0,19.2,12.0,57,34,18,30.10,29.86,11,3,19,0.00
2013-3-21,46.7,39.3,31.3,29.0,14.6,6.0,63,39,23,29.95,29.84,13,6,21,0.00
2013-3-22,50.9,42.5,35.6,32.0,21.8,14.0,56,44,34,30.05,29.95,6,2,9,0.00
2013-3-23,50.6,46.1,41.2,48.0,42.0,32.0,97,86,57,30.02,29.83,8,2,13,0.72
2013-3-24,47.8,46.6,43.1,47.0,45.0,32.0,97,94,66,29.83,29.51,14,4,24,1.00
2013-3-25,42.4,37.1,33.0,33.0,26.1,23.0,77,65,54,30.02,29.64,18,8,27,0.00
2013-3-26,41.1,35.9,31.4,29.0,26.2,24.0,84,69,51,30.25,30.00,12,6,23,0.00
2013-3-27,54.5,41.8,30.3,27.0,24.3,19.0,83,54,29,30.32,30.20,13,4,16,0.00
2013-3-28,62.1,47.3,33.9,31.0,26.1,18.0,78,47,23,30.31,30.19,14,2,26,0.00
2013-3-29,63.7,51.7,38.6,34.0,30.0,23.0,75,46,27,30.32,30.16,7,1,14,0.00
2013-3-30,70.1,57.5,47.7,55.0,42.3,34.0,95,60,35,30.18,29.99,9,2,17,0.26
2013-3-31,65.0,59.4,55.2,59.0,55.5,54.0,97,87,73,30.00,29.82,11,2,13,0.34
2013-4-1,69.1,61.5,53.9,56.0,46.0,35.0,96,62,31,29.98,29.82,15,4,21,0.00
2013-4-2,65.7,55.3,47.0,43.0,31.1,22.0,68,43,24,30.13,29.98,11,4,16,0.00
2013-4-3,58.4,52.6,46.0,44.0,30.6,26.0,90,45,30,30.18,30.05,10,3,15,0.21
2013-4-4,47.7,42.6,38.7,44.0,39.1,36.0,97,88,68,30.16,29.95,17,5,21,0.26
2013-4-5,67.9,51.8,39.8,47.0,40.8,35.0,97,72,32,30.04,29.92,9,2,15,0.01
2013-4-6,70.6,59.3,44.6,38.0,36.0,33.0,76,45,27,30.18,30.04,9,2,12,0.00
2013-4-7,71.9,62.4,47.5,49.0,44.3,36.0,76,53,38,30.18,30.04,8,2,14,0.00
2013-4-8,75.5,66.9,56.7,57.0,52.4,47.0,82,61,44,30.11,30.01,9,2,16,0.00
2013-4-9,80.6,70.5,57.2,59.0,56.0,54.0,89,62,42,30.15,30.03,6,2,10,0.00
2013-4-10,83.7,71.8,58.2,60.0,56.9,55.0,89,61,40,30.07,29.88,10,2,13,0.00
2013-4-11,78.9,69.5,61.5,68.0,60.5,56.0,96,74,58,29.90,29.62,12,4,18,1.06
2013-4-12,67.6,62.8,56.1,63.0,51.1,37.0,97,70,33,29.86,29.60,14,5,23,0.20
2013-4-13,78.2,64.0,52.9,42.0,36.3,27.0,64,40,18,29.99,29.85,8,3,17,0.00
2013-4-14,62.2,57.3,53.9,54.0,45.1,36.0,95,66,47,30.02,29.90,7,2,14,0.10
2013-4-15,74.0,62.9,55.0,60.0,57.0,54.0,98,83,57,30.13,29.91,9,2,12,0.03
2013-4-16,78.6,67.9,60.6,63.0,60.8,58.0,98,79,57,30.23,30.12,7,2,9,0.00
2013-4-17,83.7,71.4,64.0,64.0,62.1,61.0,90,74,49,30.18,30.02,8,1,16,0.03
2013-4-18,78.7,69.1,61.6,63.0,61.1,59.0,97,77,52,30.05,29.88,12,3,17,0.00
2013-4-19,68.8,59.2,46.9,66.0,55.7,39.0,95,88,74,29.96,29.71,13,6,24,0.65
2013-4-20,65.5,52.9,41.1,39.0,31.1,25.0,76,47,22,30.20,29.96,9,3,18,0.01
2013-4-21,65.4,55.2,43.8,41.0,35.2,-99.9,73,50,33,30.33,30.21,10,-8,18,0.00
2013-4-22,67.1,56.7,47.8,45.0,41.2,38.0,74,57,42,30.31,30.13,11,4,18,0.00
2013-4-23,72.5,59.2,46.6,50.0,42.0,35.0,67,54,40,30.22,30.05,7,2,12,0.00
2013-4-24,74.2,62.9,55.4,61.0,55.4,49.0,96,78,52,30.08,30.01,10,2,17,0.14
2013-4-25,73.4,59.4,45.4,59.0,38.1,14.0,97,56,11,30.25,30.05,10,3,15,0.00
2013-4-26,72.8,60.0,43.6,44.0,37.6,30.0,74,45,29,30.36,30.23,9,2,16,0.00
2013-4-27,63.1,56.8,53.4,55.0,53.0,43.0,97,87,49,30.33,30.16,13,3,14,0.76
2013-4-28,56.0,54.1,52.3,56.0,53.5,52.0,98,98,96,30.20,30.00,8,3,14,1.48
2013-4-29,71.5,60.7,54.2,59.0,55.5,54.0,99,85,56,30.03,29.90,6,1,12,0.01
2013-4-30,77.6,64.7,53.8,62.0,56.8,52.0,96,78,45,30.07,29.92,7,1,10,0.00
2013-5-1,68.0,62.8,59.0,60.0,55.9,54.0,93,79,64,30.17,30.07,13,4,21,0.00
2013-5-2,63.8,59.4,57.7,59.0,56.7,55.0,96,91,83,30.18,30.11,10,4,16,0.00
2013-5-3,59.6,57.6,56.5,57.0,55.7,53.0,97,93,81,30.13,29.97,15,6,22,0.19
2013-5-4,56.7,52.4,48.7,55.0,50.9,47.0,98,94,76,29.97,29.83,14,6,21,1.69
2013-5-5,59.2,54.3,50.2,57.0,53.4,49.0,98,96,90,29.83,29.73,13,3,19,1.49
2013-5-6,55.8,51.4,46.3,51.0,48.4,46.0,97,90,76,29.88,29.76,7,2,11,0.02
2013-5-7,68.0,58.6,49.9,55.0,51.3,48.0,98,79,51,29.93,29.84,6,2,14,0.13
2013-5-8,75.2,64.2,53.9,58.0,55.1,53.0,95,74,49,30.01,29.91,10,3,16,0.00
2013-5-9,81.1,69.1,55.9,62.0,57.4,55.0,97,69,42,30.07,29.98,8,1,13,0.00
2013-5-10,77.4,68.9,58.8,63.0,59.3,56.0,93,73,53,30.05,29.90,9,1,14,0.00
2013-5-11,76.0,67.4,60.4,64.0,61.4,58.0,95,81,63,29.94,29.82,11,2,16,0.06
2013-5-12,68.5,61.1,52.6,61.0,45.6,33.0,95,61,31,30.05,29.86,13,4,19,0.00
2013-5-13,69.2,57.3,44.3,40.0,34.7,27.0,81,46,23,30.18,30.05,14,2,20,0.00
2013-5-14,77.7,63.0,45.5,56.0,46.2,38.0,83,57,36,30.23,30.07,8,2,16,0.00
2013-5-15,85.4,73.0,61.7,59.0,56.3,54.0,80,58,34,30.09,29.96,13,3,16,0.00
2013-5-16,81.9,71.4,62.6,62.0,59.6,57.0,89,68,47,30.03,29.93,6,1,11,0.00
2013-5-17,80.1,72.1,61.7,63.0,59.2,51.0,94,66,37,30.05,29.97,8,1,12,0.00
2013-5-18,73.7,68.6,64.6,66.0,64.5,63.0,97,87,72,30.05,29.99,9,2,10,0.30
2013-5-19,68.5,66.3,64.0,68.0,65.4,63.0,98,96,91,30.06,29.95,6,1,10,0.08
2013-5-20,84.6,73.0,63.4,70.0,66.6,63.0,99,82,57,30.07,29.95,7,1,9,0.00
2013-5-21,88.2,76.6,68.1,70.0,67.6,63.0,97,76,43,29.99,29.85,7,2,10,0.02
2013-5-22,81.8,72.0,65.4,71.0,66.6,62.0,96,84,64,29.94,29.80,13,2,13,0.02
2013-5-23,81.9,73.2,66.0,67.0,61.9,54.0,97,71,45,29.91,29.84,9,4,21,0.10
2013-5-24,75.3,67.2,60.1,56.0,49.0,42.0,81,55,31,30.16,29.91,15,6,22,0.00
2013-5-25,77.7,64.5,48.5,49.0,44.1,38.0,85,51,31,30.28,30.13,8,2,13,0.00
2013-5-26,80.8,68.2,55.1,52.0,48.8,44.0,82,53,32,30.23,30.11,8,1,11,0.00
2013-5-27,83.8,72.3,58.4,61.0,57.1,50.0,87,61,40,30.20,30.06,7,2,11,0.00
2013-5-28,83.3,74.7,64.6,65.0,61.1,58.0,85,64,42,30.15,30.07,8,2,13,0.00
2013-5-29,81.2,72.7,62.7,65.0,62.4,60.0,91,71,54,30.18,30.08,8,2,14,0.00
2013-5-30,81.1,72.5,65.0,67.0,64.7,62.0,96,77,57,30.21,30.08,6,2,10,0.00
2013-5-31,82.9,74.6,66.7,68.0,65.1,63.0,92,74,52,30.17,30.03,7,2,13,0.00
2013-6-1,83.4,75.1,66.9,70.0,66.5,64.0,92,75,58,30.06,29.94,10,3,13,0.01
2013-6-2,82.4,72.9,68.1,73.0,68.3,66.0,97,86,66,29.95,29.83,11,2,28,0.34
2013-6-3,84.9,73.7,66.9,71.0,67.2,65.0,99,82,52,29.91,29.81,7,1,9,0.01
2013-6-4,87.3,76.0,64.5,68.0,65.0,63.0,95,71,46,29.96,29.88,5,1,10,0.00
2013-6-5,82.6,73.0,66.6,72.0,68.6,66.0,96,86,66,29.99,29.86,10,2,15,0.57
2013-6-6,75.3,69.2,64.9,70.0,67.1,64.0,98,93,83,29.89,29.72,6,2,8,0.37
2013-6-7,83.0,71.9,66.8,70.0,67.7,65.0,97,87,59,29.79,29.64,7,2,14,0.43
2013-6-8,81.9,72.6,63.1,69.0,65.8,63.0,98,81,57,30.03,29.79,7,2,9,0.01
2013-6-9,83.2,73.7,68.3,71.0,69.2,67.0,97,86,62,30.05,29.95,13,2,19,1.57
2013-6-10,77.6,71.5,66.2,71.0,68.6,65.0,97,90,74,29.98,29.88,8,3,27,0.23
2013-6-11,87.5,78.5,71.2,74.0,71.3,69.0,95,80,55,29.98,29.90,10,3,16,0.02
2013-6-12,92.5,81.9,71.8,75.0,72.5,70.0,95,75,53,29.99,29.89,11,2,15,0.00
2013-6-13,88.6,79.3,69.7,76.0,72.1,68.0,97,80,57,29.90,29.67,13,4,23,0.95
2013-6-14,85.1,75.0,65.6,70.0,63.4,58.0,98,70,45,29.96,29.76,6,1,9,0.01
2013-6-15,84.1,74.5,63.9,62.0,60.4,58.0,83,63,43,30.08,29.96,8,2,9,0.00
2013-6-16,87.8,76.0,64.5,71.0,65.8,61.0,91,72,47,30.10,29.96,8,1,10,0.19
2013-6-17,84.9,73.8,67.7,73.0,69.5,67.0,97,87,64,30.02,29.89,7,1,10,0.63
2013-6-18,80.7,73.3,69.7,73.0,70.2,68.0,96,90,76,29.90,29.77,10,2,16,0.23
2013-6-19,80.8,73.9,69.4,70.0,68.3,65.0,96,83,68,30.04,29.84,6,2,11,0.00
2013-6-20,82.0,74.0,66.3,68.0,66.7,65.0,96,79,57,30.15,30.03,10,2,14,0.00
2013-6-21,82.8,74.3,66.4,66.0,65.0,63.0,92,74,52,30.20,30.10,5,1,11,0.00
2013-6-22,83.2,74.5,65.6,67.0,64.6,62.0,91,72,53,30.18,30.05,6,1,11,0.00
2013-6-23,85.2,75.7,67.2,72.0,67.6,63.0,89,76,57,30.15,30.05,5,1,10,0.00
2013-6-24,85.2,76.4,69.4,72.0,69.9,68.0,97,81,59,30.17,30.05,8,1,12,0.00
2013-6-25,84.6,76.4,70.3,75.0,70.9,68.0,94,83,66,30.11,29.97,7,1,16,0.75
2013-6-26,86.1,78.4,71.3,75.0,72.3,70.0,96,82,63,30.02,29.88,9,2,16,0.01
2013-6-27,85.7,79.6,75.6,75.0,73.1,71.0,91,80,65,29.92,29.74,10,3,17,0.00
2013-6-28,91.8,79.7,72.0,75.0,71.4,67.0,96,78,45,29.78,29.58,10,3,15,0.00
2013-6-29,86.0,76.6,68.0,71.0,66.9,61.0,93,74,44,29.66,29.60,7,2,13,0.00
2013-6-30,84.9,75.3,67.4,71.0,67.0,63.0,94,77,49,29.75,29.63,9,2,12,0.00
2013-7-1,83.1,71.7,67.5,70.0,67.9,66.0,97,89,60,29.88,29.73,8,2,16,1.28
2013-7-2,83.7,75.0,68.3,71.0,68.5,65.0,98,82,57,30.04,29.87,9,3,12,0.01
2013-7-3,75.9,69.9,66.0,72.0,68.5,66.0,98,95,85,30.13,30.02,8,2,12,0.66
2013-7-4,77.1,69.7,66.0,74.0,69.0,66.0,99,97,87,30.16,30.07,8,2,22,0.84
2013-7-5,80.9,72.3,68.4,72.0,70.0,67.0,98,93,72,30.17,30.09,8,2,12,1.11
2013-7-6,83.4,72.2,67.8,74.0,68.0,-99.9,99,90,67,30.13,30.03,9,-11,14,0.80
2013-7-7,80.1,74.4,69.5,73.0,71.1,69.0,99,90,73,30.12,30.05,4,1,8,0.01
2013-7-8,87.1,75.9,71.3,75.0,69.3,-99.9,98,84,57,30.14,30.04,8,-13,10,0.29
2013-7-9,87.8,77.3,71.4,76.0,73.1,71.0,99,87,63,30.12,30.00,6,1,10,0.01
2013-7-10,87.4,77.8,72.2,76.0,73.0,71.0,98,86,61,30.05,29.90,8,1,11,0.03
2013-7-11,80.5,75.7,71.7,74.0,72.2,71.0,97,89,77,29.92,29.82,4,1,8,0.00
2013-7-12,84.9,74.7,69.0,75.0,71.2,67.0,98,89,69,29.91,29.81,5,1,11,0.28
2013-7-13,76.7,71.1,67.6,71.0,68.3,65.0,96,91,81,30.02,29.91,9,3,13,0.03
2013-7-14,77.1,72.7,69.9,74.0,71.2,69.0,98,95,87,30.19,30.01,8,3,15,0.33
2013-7-15,81.8,74.7,69.6,75.0,71.3,69.0,98,90,75,30.25,30.16,11,2,16,0.03
2013-7-16,87.6,78.4,70.2,73.0,70.8,69.0,98,80,55,30.27,30.18,7,1,9,0.01
2013-7-17,92.7,77.5,69.3,75.0,71.2,66.0,97,83,52,30.23,30.08,8,1,17,2.25
2013-7-18,87.9,77.6,68.4,74.0,70.9,68.0,98,81,59,30.17,30.01,5,1,9,0.01
2013-7-19,89.0,79.6,71.9,75.0,72.7,70.0,96,81,55,30.06,29.92,6,1,7,0.00
2013-7-20,84.7,75.3,71.0,76.0,71.7,69.0,97,88,70,29.98,29.89,7,1,10,0.77
2013-7-21,87.4,77.1,71.1,74.0,71.6,70.0,97,84,60,29.98,29.86,7,1,10,0.39
2013-7-22,82.3,74.4,70.4,76.0,71.7,69.0,97,91,72,29.96,29.82,10,2,20,1.64
2013-7-23,80.4,74.7,69.9,73.0,70.8,69.0,96,88,71,29.91,29.78,9,3,13,0.00
2013-7-24,85.4,75.1,69.2,76.0,71.2,66.0,96,88,62,29.82,29.75,8,2,18,0.81
2013-7-25,86.7,75.6,67.8,71.0,69.1,67.0,98,82,54,29.95,29.79,6,1,8,0.00
2013-7-26,84.6,73.6,67.7,75.0,69.5,65.0,97,87,69,30.02,29.92,6,1,15,0.70
2013-7-27,79.7,74.1,69.7,73.0,70.0,68.0,98,88,75,29.96,29.85,6,1,10,0.00
2013-7-28,85.7,76.0,68.7,72.0,69.8,68.0,96,82,58,29.98,29.87,6,1,11,0.00
2013-7-29,85.2,74.4,67.7,71.0,65.1,57.0,92,75,39,30.10,29.97,6,1,10,0.00
2013-7-30,86.5,75.8,63.8,70.0,65.9,60.0,93,73,56,30.16,30.06,6,1,8,0.00
2013-7-31,80.0,75.2,72.1,72.0,70.2,66.0,93,84,70,30.09,29.91,8,1,9,0.01
2013-8-1,86.9,75.5,69.0,75.0,71.4,68.0,97,88,62,29.95,29.84,11,2,12,0.43
2013-8-2,88.6,77.6,67.8,72.0,68.8,62.0,96,76,41,29.98,29.87,6,1,9,0.00
2013-8-3,84.1,77.0,68.1,73.0,69.8,67.0,96,79,61,30.00,29.93,9,2,12,0.00
2013-8-4,89.3,79.8,72.9,73.0,70.0,67.0,92,74,50,29.96,29.89,12,3,13,0.00
2013-8-5,86.6,77.1,69.7,72.0,68.2,65.0,86,75,57,30.00,29.91,5,1,9,0.00
2013-8-6,85.3,79.1,74.0,74.0,72.1,67.0,94,80,58,29.95,29.90,5,2,9,0.00
2013-8-7,79.0,73.5,70.1,74.0,71.9,69.0,98,95,82,30.01,29.93,7,1,22,1.77
2013-8-8,80.5,74.4,71.6,76.0,72.8,71.0,98,95,82,30.01,29.96,5,1,14,1.83
2013-8-9,88.3,80.0,72.2,77.0,73.6,72.0,98,82,60,30.03,29.95,6,1,13,0.00
2013-8-10,89.8,79.4,74.0,76.0,73.6,72.0,96,83,59,30.06,29.99,8,1,12,0.08
2013-8-11,88.1,78.7,71.3,76.0,73.2,70.0,97,84,63,30.10,30.00,7,1,12,0.14
2013-8-12,88.8,77.3,72.5,76.0,73.2,71.0,97,88,62,30.05,29.93,7,1,24,0.45
2013-8-13,84.6,77.1,72.0,75.0,72.5,71.0,97,86,68,29.95,29.81,9,2,12,0.00
2013-8-14,78.2,74.5,70.3,72.0,69.9,67.0,91,85,77,29.98,29.82,7,2,9,0.00
2013-8-15,71.7,67.9,66.1,67.0,62.3,59.0,91,82,67,30.05,29.97,10,3,18,0.00
2013-8-16,68.0,65.0,61.4,64.0,61.4,59.0,96,88,83,30.09,30.00,9,3,17,0.04
2013-8-17,65.2,63.6,61.5,64.0,61.9,60.0,98,94,86,30.12,30.05,13,3,14,0.35
2013-8-18,71.8,67.3,64.1,70.0,66.6,64.0,99,97,93,30.17,30.07,6,2,11,0.54
2013-8-19,73.7,69.9,66.9,71.0,68.8,66.0,99,96,90,30.12,30.04,6,2,10,1.14
2013-8-20,77.4,72.6,68.7,73.0,70.2,68.0,98,92,84,30.14,30.05,6,1,8,0.00
2013-8-21,80.1,73.3,70.0,73.0,71.0,69.0,98,93,76,30.20,30.07,7,1,8,0.07
2013-8-22,85.7,75.0,69.6,74.0,70.8,69.0,97,87,63,30.12,30.00,9,1,10,0.11
2013-8-23,89.5,77.2,68.2,74.0,70.3,67.0,98,81,52,30.03,29.92,6,1,16,0.01
2013-8-24,79.7,72.8,67.3,69.0,67.2,65.0,95,83,69,30.22,29.99,9,3,14,0.00
2013-8-25,79.0,71.5,63.1,66.0,62.2,59.0,91,73,55,30.32,30.21,8,2,12,0.00
2013-8-26,82.0,72.4,62.9,65.0,62.8,60.0,94,73,53,30.27,30.10,5,1,7,0.00
2013-8-27,86.3,75.5,64.4,71.0,65.3,62.0,95,73,48,30.13,29.98,5,1,8,0.00
2013-8-28,89.3,77.9,68.2,74.0,69.9,67.0,95,78,50,30.00,29.91,5,1,8,0.00
2013-8-29,92.0,80.6,71.6,75.0,72.2,69.0,92,77,56,29.94,29.85,8,2,11,0.00
2013-8-30,85.0,77.5,73.0,75.0,73.0,71.0,95,86,69,29.98,29.88,5,2,10,0.00
2013-8-31,89.3,76.8,71.0,76.0,71.9,69.0,97,86,55,29.92,29.83,7,1,16,0.40
2013-9-1,84.5,75.7,70.1,76.0,72.4,69.0,98,90,69,29.89,29.80,7,1,15,0.01
2013-9-2,81.1,75.2,71.5,74.0,71.7,70.0,96,89,73,29.91,29.80,8,2,17,0.00
2013-9-3,89.1,78.7,72.0,75.0,71.1,68.0,96,79,52,29.92,29.82,7,2,11,0.00
2013-9-4,87.4,76.9,67.5,71.0,67.3,60.0,96,75,40,30.04,29.91,4,1,9,0.00
2013-9-5,86.2,76.8,68.2,72.0,69.6,67.0,96,80,56,30.08,30.00,6,1,8,0.01
2013-9-6,83.1,74.8,67.2,70.0,66.5,64.0,96,76,57,30.11,30.01,7,2,14,0.00
2013-9-7,84.1,74.6,65.8,69.0,66.1,64.0,94,76,53,30.09,29.96,4,1,8,0.00
2013-9-8,89.3,77.1,66.8,71.0,67.3,62.0,97,74,43,29.97,29.88,8,1,10,0.00
2013-9-9,86.7,77.4,69.5,71.0,68.7,66.0,90,76,55,30.07,29.94,8,1,10,0.00
2013-9-10,86.2,76.5,68.3,72.0,69.3,67.0,95,79,61,30.18,30.07,8,1,9,0.00
2013-9-11,88.6,77.6,68.0,71.0,67.6,65.0,95,73,46,30.17,30.05,4,1,9,0.00
2013-9-12,87.7,75.9,70.3,73.0,70.1,68.0,95,83,57,30.05,29.85,8,1,11,0.03
2013-9-13,84.6,75.0,64.3,71.0,64.1,55.0,94,71,42,29.86,29.76,10,3,15,0.00
2013-9-14,77.6,67.0,57.1,61.0,57.1,54.0,91,72,51,30.05,29.84,7,2,13,0.00
2013-9-15,80.9,70.2,61.2,69.0,63.8,58.0,91,81,64,30.14,30.05,6,2,10,0.00
2013-9-16,85.7,75.3,66.6,69.0,65.1,62.0,94,73,47,30.09,30.00,6,1,9,0.00
2013-9-17,72.0,69.0,65.7,63.0,60.5,58.0,82,75,65,30.21,30.07,10,3,16,0.00
2013-9-18,73.8,67.4,62.5,63.0,59.8,57.0,87,77,65,30.22,30.11,5,2,12,0.00
2013-9-19,81.8,71.0,60.8,65.0,62.3,59.0,95,76,53,30.16,30.03,4,1,9,0.00
2013-9-20,85.2,74.2,64.3,67.0,64.5,63.0,97,74,50,30.04,29.87,6,1,10,0.00
2013-9-21,73.3,68.9,64.4,69.0,65.9,62.0,97,90,77,29.89,29.64,9,2,13,0.64
2013-9-22,79.3,68.0,57.7,64.0,60.7,57.0,98,79,51,29.84,29.71,5,1,10,0.00
2013-9-23,76.7,66.9,61.0,63.0,60.5,58.0,92,81,61,29.99,29.85,9,2,13,0.00
2013-9-24,69.4,65.2,62.3,64.0,61.6,59.0,96,88,78,30.01,29.87,7,1,10,0.03
2013-9-25,63.8,62.7,60.7,63.0,61.9,60.0,98,97,95,29.88,29.80,8,2,12,0.65
2013-9-26,76.3,66.7,58.9,65.0,62.1,58.0,98,86,67,29.98,29.84,6,1,9,0.00
2013-9-27,76.5,66.9,57.7,62.0,59.1,56.0,94,77,55,30.11,29.98,8,1,14,0.00
2013-9-28,72.5,64.4,56.5,59.0,57.3,55.0,94,78,60,30.19,30.08,8,1,11,0.00
2013-9-29,70.2,63.2,55.1,58.0,55.8,53.0,92,77,59,30.13,30.00,9,1,10,0.00
2013-9-30,75.0,65.4,58.0,60.0,57.5,56.0,95,77,52,30.07,29.97,6,1,10,0.00
2013-10-1,79.9,67.3,56.4,63.0,59.4,55.0,97,78,50,30.13,30.02,5,0,7,0.01
2013-10-2,82.2,70.1,60.0,65.0,61.9,59.0,98,78,48,30.12,30.02,5,1,8,0.00
2013-10-3,81.9,72.0,63.2,66.0,62.7,61.0,93,74,49,30.10,30.02,4,1,10,0.00
2013-10-4,84.0,72.0,61.2,66.0,62.7,60.0,95,75,49,30.12,30.04,5,0,8,0.00
2013-10-5,83.9,73.1,62.5,67.0,64.0,61.0,97,76,50,30.09,29.98,7,1,9,0.00
2013-10-6,80.8,71.5,64.1,69.0,64.9,62.0,96,81,57,29.99,29.82,6,1,13,0.92
2013-10-7,76.0,67.7,61.8,67.0,62.1,55.0,98,83,50,29.91,29.77,8,2,14,0.24
2013-10-8,71.3,64.3,60.0,59.0,55.8,52.0,91,75,57,30.12,29.91,13,3,18,0.00
2013-10-9,73.2,62.7,53.2,56.0,50.6,46.0,88,66,46,30.17,30.08,9,2,17,0.00
2013-10-10,77.6,64.3,53.5,59.0,55.3,52.0,97,75,47,30.10,29.97,9,2,17,0.00
2013-10-11,80.2,66.0,54.9,61.0,56.0,54.0,96,73,41,30.01,29.91,6,2,10,0.00
2013-10-12,80.7,67.2,55.9,61.0,58.3,55.0,97,76,48,30.05,29.94,8,1,13,0.01
2013-10-13,79.0,68.2,58.6,65.0,61.0,57.0,95,79,54,30.14,30.05,6,1,7,0.00
2013-10-14,71.7,66.0,62.0,65.0,62.2,61.0,96,88,73,30.17,30.08,6,1,11,0.01
2013-10-15,64.4,62.6,59.4,61.0,58.9,57.0,95,88,78,30.12,30.02,6,2,11,0.00
2013-10-16,71.5,64.2,59.0,62.0,59.2,57.0,95,84,65,30.04,29.93,4,0,7,0.00
2013-10-17,67.6,63.4,61.5,67.0,59.5,-99.9,97,92,87,29.94,29.84,4,-22,11,0.18
2013-10-18,71.2,61.5,54.7,60.0,56.4,52.0,98,85,52,29.98,29.88,4,1,7,0.00
2013-10-19,62.6,58.4,54.9,57.0,55.1,53.0,96,89,79,29.93,29.88,6,1,13,0.02
2013-10-20,69.1,55.9,44.4,53.0,45.9,36.0,97,73,30,30.05,29.94,6,1,7,0.02
2013-10-21,65.7,55.8,48.1,58.0,52.0,45.0,93,87,72,30.11,30.00,7,2,9,0.00
2013-10-22,71.2,60.8,57.5,58.0,53.6,-99.9,97,81,50,30.02,29.81,8,-11,10,0.02
2013-10-23,58.5,53.0,44.2,52.0,42.6,33.0,92,70,46,30.05,29.77,17,5,27,0.00
2013-10-24,62.3,50.2,41.1,44.0,39.5,36.0,87,69,43,30.17,30.04,7,2,14,0.00
2013-10-25,58.4,46.8,35.9,42.0,30.2,20.0,81,57,23,30.34,30.17,9,2,12,0.00
2013-10-26,57.1,45.5,34.5,43.0,35.0,31.0,86,69,44,30.33,30.14,8,1,12,0.00
2013-10-27,65.3,56.1,47.6,54.0,47.2,37.0,88,72,60,30.14,30.07,9,2,14,0.00
2013-10-28,64.5,58.2,54.5,57.0,55.2,52.0,97,90,71,30.25,30.11,3,0,8,0.10
2013-10-29,69.8,60.5,52.0,58.0,55.2,51.0,98,84,64,30.31,30.22,3,0,7,0.01
2013-10-30,74.8,64.7,56.6,60.0,57.5,55.0,97,79,56,30.27,30.13,5,1,9,0.00
2013-10-31,72.3,66.4,60.5,63.0,58.8,53.0,80,76,72,30.13,29.83,8,3,15,0.00
2013-11-1,73.9,66.3,57.9,65.0,57.5,46.0,97,75,43,29.82,29.66,11,3,18,0.32
2013-11-2,65.9,56.8,49.2,50.0,44.9,39.0,90,66,42,30.02,29.75,19,2,19,0.00
2013-11-3,64.7,52.4,43.1,43.0,39.5,35.0,92,65,35,30.30,30.02,7,1,9,0.00
2013-11-4,59.7,50.1,43.5,41.0,36.6,-99.9,85,63,43,30.44,30.30,10,-9,17,0.00
2013-11-5,61.3,50.2,42.6,46.0,36.6,33.0,84,62,35,30.47,30.34,10,3,14,0.00
2013-11-6,69.8,59.5,50.8,57.0,53.0,46.0,91,80,64,30.34,30.10,9,2,13,0.00
2013-11-7,65.0,56.9,43.2,60.0,48.2,37.0,97,74,43,30.15,30.00,13,3,20,0.07
2013-11-8,62.3,48.5,37.3,37.0,30.2,19.0,84,55,20,30.31,30.15,6,1,9,0.00
2013-11-9,56.7,48.5,39.7,42.0,34.0,29.0,80,59,39,30.34,30.21,6,1,9,0.00
2013-11-10,73.4,57.9,46.3,41.0,36.7,26.0,80,49,20,30.24,30.14,9,2,15,0.00
2013-11-11,64.1,51.0,43.4,40.0,31.6,-99.9,77,53,31,30.30,30.16,7,-22,12,0.00
2013-11-12,62.7,47.0,32.3,43.0,33.5,16.0,85,61,40,30.42,30.10,14,3,24,0.00
2013-11-13,50.1,37.4,25.8,27.0,17.3,3.0,81,50,17,30.56,30.43,7,1,11,0.00
2013-11-14,58.0,42.3,28.0,33.0,22.1,15.0,92,51,19,30.49,30.32,6,1,8,0.00
2013-11-15,50.1,45.9,39.4,49.0,36.8,24.0,97,73,43,30.32,30.15,5,1,8,0.16
2013-11-16,57.7,53.9,49.5,55.0,52.6,49.0,98,95,91,30.23,30.14,7,1,9,0.00
2013-11-17,60.3,58.6,56.9,60.0,57.6,55.0,99,96,92,30.16,29.90,7,2,10,0.26
2013-11-18,69.8,62.0,50.6,65.0,46.5,31.0,99,62,26,29.99,29.84,13,3,17,0.09
2013-11-19,57.3,49.3,39.2,35.0,33.2,29.0,80,55,40,30.17,29.97,7,1,10,0.00
2013-11-20,53.3,46.7,41.0,33.0,30.9,29.0,65,55,44,30.35,30.18,12,4,17,0.00
2013-11-21,49.9,48.4,47.2,49.0,42.4,34.0,97,81,57,30.41,30.32,11,4,18,0.00
2013-11-22,59.6,54.4,49.3,57.0,53.6,49.0,99,97,91,30.36,30.14,4,1,8,0.10
2013-11-23,59.2,53.5,41.2,57.0,46.3,27.0,98,78,50,30.19,30.07,10,4,16,0.01
2013-11-24,48.9,38.7,30.4,28.0,17.7,12.0,63,45,23,30.47,30.18,7,2,13,0.00
2013-11-25,41.4,35.7,29.2,31.0,15.1,10.0,90,44,32,30.49,30.26,10,4,16,0.01
2013-11-26,49.4,41.0,32.6,49.0,40.3,31.0,99,97,91,30.25,29.62,10,3,16,1.50
2013-11-27,46.0,36.2,28.3,46.0,29.3,19.0,98,77,59,30.23,29.60,18,7,29,0.12
2013-11-28,48.9,35.3,23.6,30.0,21.5,-99.9,89,62,32,30.48,30.23,6,-10,10,0.00
2013-11-29,60.2,43.9,28.9,31.0,26.5,15.0,94,58,20,30.51,30.42,5,1,9,0.00
2013-11-30,49.6,41.9,35.6,30.0,26.3,24.0,67,55,38,30.56,30.34,11,3,16,0.00
2013-12-1,41.4,41.4,41.4,28.0,27.3,27.0,59,58,58,30.35,30.34,2,1,5,0.00
2014-1-1,47.7,42.0,35.6,37.0,32.0,28.1,79,68,54,30.36,30.12,4,1,8,0.00
2014-1-2,45.6,38.5,24.6,44.8,34.1,15.2,97,84,64,30.08,29.74,17,6,34,0.23